Time;durP1;ratioP1;P1;durP2;ratioP2;P2;SDS_P1;SDS_P2;PMS_P1;PMS_P2;Temp;Humidity;BMP_temperature;BMP_pressure;BME280_temperature;BME280_humidity;BME280_pressure;Samples;Min_cycle;Max_cycle;Signal;HPM_P1;HPM_P2
2023/07/28 00:00:07;;;;;;;1.10;0.60;;;18.90;1.00;;;;;;5075033;28;20862;-59
2023/07/28 00:02:35;;;;;;;0.90;0.70;;;18.90;1.00;;;;;;5073474;28;20423;-59
2023/07/28 00:05:02;;;;;;;1.90;0.60;;;18.80;1.00;;;;;;5073867;28;20484;-59
2023/07/28 00:07:29;;;;;;;0.90;0.50;;;18.80;1.00;;;;;;5074527;28;20427;-60
2023/07/28 00:09:57;;;;;;;0.90;0.60;;;18.80;1.00;;;;;;5073715;28;20443;-59
2023/07/28 00:12:24;;;;;;;0.85;0.50;;;18.90;1.00;;;;;;5073001;28;20435;-59
2023/07/28 00:14:51;;;;;;;0.87;0.60;;;18.80;1.00;;;;;;5072427;28;20439;-59
2023/07/28 00:17:18;;;;;;;0.80;0.50;;;18.80;1.00;;;;;;5073054;28;20428;-59
2023/07/28 00:19:46;;;;;;;1.08;0.50;;;18.70;1.00;;;;;;5072894;28;20739;-59
2023/07/28 00:22:13;;;;;;;0.80;0.50;;;18.70;1.00;;;;;;5072553;28;20438;-59
2023/07/28 00:24:40;;;;;;;0.80;0.60;;;18.70;1.00;;;;;;5072576;28;20773;-58
2023/07/28 00:27:07;;;;;;;0.88;0.60;;;18.60;1.00;;;;;;5073485;28;20432;-59
2023/07/28 00:29:34;;;;;;;0.90;0.50;;;18.60;1.00;;;;;;5073617;28;20801;-59
2023/07/28 00:32:01;;;;;;;0.80;0.50;;;18.60;1.00;;;;;;5073566;28;20798;-58
2023/07/28 00:34:28;;;;;;;0.90;0.60;;;18.50;1.00;;;;;;5072893;28;20493;-58
2023/07/28 00:36:57;;;;;;;0.80;0.60;;;18.50;1.00;;;;;;5073965;28;20435;-59
2023/07/28 00:39:24;;;;;;;1.40;0.50;;;18.50;1.00;;;;;;5074322;28;20443;-58
2023/07/28 00:41:51;;;;;;;0.93;0.50;;;18.40;1.00;;;;;;5072567;28;20435;-59
2023/07/28 00:44:18;;;;;;;1.02;0.60;;;18.40;1.00;;;;;;5072898;28;20851;-58
2023/07/28 00:46:45;;;;;;;0.70;0.50;;;18.40;1.00;;;;;;5074713;28;20415;-59
2023/07/28 00:49:12;;;;;;;0.80;0.60;;;18.40;1.00;;;;;;5077710;28;20716;-59
2023/07/28 00:51:39;;;;;;;0.90;0.50;;;18.30;1.00;;;;;;5077608;28;20435;-59
2023/07/28 00:54:08;;;;;;;1.30;0.60;;;18.30;3.20;;;;;;5077578;28;20496;-61
2023/07/28 00:56:35;;;;;;;0.80;0.50;;;18.30;5.80;;;;;;5078166;28;20457;-58
2023/07/28 00:59:03;;;;;;;0.75;0.50;;;18.30;1.00;;;;;;5077517;28;20420;-58
2023/07/28 01:01:30;;;;;;;0.80;0.60;;;18.30;4.20;;;;;;5077264;28;20423;-57
2023/07/28 01:03:58;;;;;;;0.80;0.60;;;18.20;12.40;;;;;;5077308;28;20788;-58
2023/07/28 01:06:36;;;;;;;1.00;0.60;;;18.20;20.30;;;;;;5077735;28;20442;-58
2023/07/28 01:09:05;;;;;;;0.80;0.50;;;18.20;20.90;;;;;;5077082;28;20731;-59
2023/07/28 01:11:33;;;;;;;1.20;0.50;;;18.20;12.40;;;;;;5077564;28;20861;-58
2023/07/28 01:14:00;;;;;;;0.90;0.50;;;18.20;17.00;;;;;;5076745;28;20481;-58
2023/07/28 01:16:27;;;;;;;0.80;0.60;;;18.20;21.20;;;;;;5077808;28;20427;-57
2023/07/28 01:18:54;;;;;;;0.80;0.60;;;18.10;21.50;;;;;;5077966;28;20427;-58
2023/07/28 01:21:24;;;;;;;1.00;0.50;;;18.10;27.80;;;;;;5077658;28;20496;-57
2023/07/28 01:24:02;;;;;;;0.90;0.60;;;18.20;27.50;;;;;;5077171;28;20434;-57
2023/07/28 01:26:35;;;;;;;1.20;0.50;;;18.10;26.30;;;;;;5077180;28;20946;-58
2023/07/28 01:29:03;;;;;;;0.90;0.60;;;18.10;33.00;;;;;;5077132;28;20418;-58
2023/07/28 01:31:30;;;;;;;0.80;0.50;;;18.10;37.60;;;;;;5076543;28;20435;-58
2023/07/28 01:33:57;;;;;;;0.90;0.60;;;18.00;39.40;;;;;;5077090;28;20431;-58
2023/07/28 01:36:24;;;;;;;1.30;0.60;;;18.00;43.70;;;;;;5076705;28;20439;-58
2023/07/28 01:38:51;;;;;;;0.80;0.57;;;18.00;44.10;;;;;;5076988;28;20481;-58
2023/07/28 01:41:18;;;;;;;0.90;0.60;;;18.00;43.10;;;;;;5076490;28;20774;-59
2023/07/28 01:43:47;;;;;;;0.80;0.50;;;18.00;44.90;;;;;;5076925;28;20415;-59
2023/07/28 01:46:14;;;;;;;0.80;0.50;;;18.00;44.40;;;;;;5077562;28;20436;-59
2023/07/28 01:48:43;;;;;;;1.70;0.50;;;18.00;44.50;;;;;;5076490;28;20510;-59
2023/07/28 01:51:10;;;;;;;1.20;0.50;;;18.10;42.10;;;;;;5076917;28;20440;-58
2023/07/28 01:53:37;;;;;;;0.80;0.50;;;18.10;38.70;;;;;;5076142;28;20431;-58
2023/07/28 01:56:04;;;;;;;0.70;0.50;;;18.10;33.90;;;;;;5076577;28;20423;-58
2023/07/28 01:58:31;;;;;;;0.90;0.50;;;18.10;38.80;;;;;;5076118;28;20481;-59
2023/07/28 02:00:59;;;;;;;0.87;0.57;;;18.10;36.80;;;;;;5076827;28;21052;-58
2023/07/28 02:03:26;;;;;;;0.75;0.50;;;18.10;30.20;;;;;;5077147;28;20450;-59
2023/07/28 02:05:55;;;;;;;1.60;0.50;;;18.20;28.80;;;;;;5076984;28;20481;-59
2023/07/28 02:08:22;;;;;;;0.90;0.50;;;18.20;26.30;;;;;;5076292;28;20492;-58
2023/07/28 02:10:49;;;;;;;0.80;0.50;;;18.20;26.30;;;;;;5074707;28;20435;-59
2023/07/28 02:13:16;;;;;;;0.70;0.50;;;18.20;23.80;;;;;;5075855;28;20427;-58
2023/07/28 02:15:43;;;;;;;1.60;0.50;;;18.30;20.70;;;;;;5075794;28;20485;-58
2023/07/28 02:18:11;;;;;;;0.80;0.50;;;18.30;17.00;;;;;;5076546;28;20427;-58
2023/07/28 02:20:38;;;;;;;0.80;0.57;;;18.30;14.30;;;;;;5076181;28;20484;-59
2023/07/28 02:23:06;;;;;;;0.90;0.50;;;18.40;15.50;;;;;;5075818;28;20423;-59
2023/07/28 02:25:32;;;;;;;0.70;0.40;;;18.40;15.60;;;;;;5076317;28;20435;-58
2023/07/28 02:27:59;;;;;;;0.80;0.50;;;18.60;8.10;;;;;;5076263;28;20419;-59
2023/07/28 02:30:26;;;;;;;0.80;0.50;;;18.60;1.00;;;;;;5075838;28;20435;-59
2023/07/28 02:32:53;;;;;;;0.70;0.40;;;18.60;1.00;;;;;;5075714;28;20450;-58
2023/07/28 02:35:22;;;;;;;0.80;0.50;;;18.60;1.00;;;;;;5075683;28;20484;-59
2023/07/28 02:37:49;;;;;;;1.60;0.50;;;18.50;1.00;;;;;;5075792;28;20423;-58
2023/07/28 02:40:16;;;;;;;0.90;0.60;;;18.40;1.00;;;;;;5075969;28;20826;-58
2023/07/28 02:42:43;;;;;;;0.70;0.50;;;18.40;10.70;;;;;;5075515;28;20428;-58
2023/07/28 02:45:11;;;;;;;0.70;0.50;;;18.40;10.30;;;;;;5075644;28;20485;-58
2023/07/28 02:47:38;;;;;;;2.30;0.60;;;18.30;14.20;;;;;;5075991;28;20485;-58
2023/07/28 02:50:06;;;;;;;1.10;0.50;;;18.40;14.10;;;;;;5074835;28;20419;-59
2023/07/28 02:52:34;;;;;;;0.75;0.50;;;18.40;7.80;;;;;;5074967;28;20435;-58
2023/07/28 02:55:01;;;;;;;0.70;0.50;;;18.50;7.20;;;;;;5076007;28;20427;-58
2023/07/28 02:57:28;;;;;;;1.60;0.50;;;18.60;1.00;;;;;;5075539;28;20435;-59
2023/07/28 02:59:55;;;;;;;0.90;0.50;;;18.70;1.00;;;;;;5075296;28;20485;-58
2023/07/28 03:02:22;;;;;;;1.00;0.52;;;18.70;1.00;;;;;;5074920;28;20415;-58
2023/07/28 03:04:49;;;;;;;0.70;0.47;;;18.80;1.00;;;;;;5075143;28;20473;-59
2023/07/28 03:07:17;;;;;;;0.90;0.60;;;18.80;1.00;;;;;;5073862;28;20435;-58
2023/07/28 03:09:45;;;;;;;1.00;0.60;;;18.80;1.00;;;;;;5074917;28;20438;-59
2023/07/28 03:12:12;;;;;;;1.20;0.60;;;18.60;1.00;;;;;;5075196;28;20522;-58
2023/07/28 03:14:39;;;;;;;0.77;0.50;;;18.60;3.00;;;;;;5074530;28;20878;-59
2023/07/28 03:17:07;;;;;;;0.80;0.60;;;18.50;8.20;;;;;;5075073;28;20485;-59
2023/07/28 03:19:34;;;;;;;1.38;0.60;;;18.60;11.40;;;;;;5075119;28;20866;-58
2023/07/28 03:22:01;;;;;;;1.67;0.70;;;18.70;7.20;;;;;;5075153;28;20422;-58
2023/07/28 03:24:28;;;;;;;1.20;0.60;;;18.70;1.00;;;;;;5075339;28;20427;-58
2023/07/28 03:26:56;;;;;;;1.40;0.70;;;18.70;1.00;;;;;;5074205;28;20427;-59
2023/07/28 03:29:23;;;;;;;1.40;0.60;;;18.70;1.00;;;;;;5074986;28;20438;-59
2023/07/28 03:31:50;;;;;;;1.10;0.60;;;18.70;3.20;;;;;;5074740;28;20435;-59
2023/07/28 03:34:17;;;;;;;0.90;0.60;;;18.70;8.90;;;;;;5074911;28;20434;-58
2023/07/28 03:36:44;;;;;;;1.10;0.70;;;18.60;18.20;;;;;;5075403;28;20496;-58
2023/07/28 03:39:11;;;;;;;1.15;0.70;;;18.60;19.30;;;;;;5074691;28;20428;-59
2023/07/28 03:41:38;;;;;;;1.00;0.70;;;18.50;27.80;;;;;;5074289;28;20469;-58
2023/07/28 03:44:07;;;;;;;1.20;0.70;;;18.50;33.10;;;;;;5074084;28;20918;-59
2023/07/28 03:46:34;;;;;;;2.00;0.68;;;18.50;38.10;;;;;;5074486;28;20422;-59
2023/07/28 03:49:01;;;;;;;1.07;0.60;;;18.50;39.60;;;;;;5074825;28;20423;-59
2023/07/28 03:51:28;;;;;;;1.00;0.60;;;18.60;31.40;;;;;;5073834;28;20432;-60
2023/07/28 03:53:55;;;;;;;0.70;0.50;;;18.70;16.20;;;;;;5074235;28;20442;-58
2023/07/28 03:56:21;;;;;;;1.20;0.57;;;18.80;1.00;;;;;;5074325;28;20419;-60
2023/07/28 03:58:48;;;;;;;1.48;0.60;;;18.90;1.00;;;;;;5074573;28;20709;-54
2023/07/28 04:01:18;;;;;;;0.90;0.60;;;18.90;1.00;;;;;;5074915;28;20424;-59
2023/07/28 04:03:45;;;;;;;1.50;0.60;;;18.90;1.00;;;;;;5074782;28;20498;-59
2023/07/28 04:06:12;;;;;;;0.82;0.50;;;18.90;1.00;;;;;;5074485;28;20751;-59
2023/07/28 04:08:39;;;;;;;0.97;0.50;;;18.90;1.00;;;;;;5074917;28;20436;-59
2023/07/28 04:11:07;;;;;;;0.90;0.50;;;18.90;1.00;;;;;;5073896;28;20835;-59
2023/07/28 04:13:34;;;;;;;1.40;0.50;;;18.90;1.00;;;;;;5074185;28;20416;-59
2023/07/28 04:16:02;;;;;;;1.20;0.60;;;18.80;1.00;;;;;;5073993;28;20424;-59
2023/07/28 04:18:31;;;;;;;0.90;0.60;;;18.80;1.00;;;;;;5074557;28;20455;-60
2023/07/28 04:20:58;;;;;;;0.70;0.55;;;18.80;1.00;;;;;;5075934;28;20446;-60
2023/07/28 04:23:25;;;;;;;0.90;0.60;;;18.80;1.00;;;;;;5078476;28;20492;-60
2023/07/28 04:25:52;;;;;;;0.90;0.60;;;18.80;1.00;;;;;;5078334;28;20422;-60
2023/07/28 04:28:19;;;;;;;1.00;0.70;;;18.80;1.00;;;;;;5078807;28;20431;-60
2023/07/28 04:30:46;;;;;;;1.10;0.60;;;18.70;1.00;;;;;;5078237;28;20453;-60
2023/07/28 04:33:13;;;;;;;1.27;0.60;;;18.70;1.60;;;;;;5078114;28;20427;-60
2023/07/28 04:35:42;;;;;;;1.00;0.60;;;18.70;5.00;;;;;;5077326;28;20866;-59
2023/07/28 04:38:09;;;;;;;1.33;0.70;;;18.70;4.20;;;;;;5077693;28;20481;-59
2023/07/28 04:40:36;;;;;;;1.20;0.60;;;18.60;10.50;;;;;;5076762;28;20434;-59
2023/07/28 04:43:03;;;;;;;1.10;0.60;;;18.50;18.60;;;;;;5076145;28;20484;-60
2023/07/28 04:45:30;;;;;;;0.95;0.60;;;18.50;26.50;;;;;;5076911;28;20790;-60
2023/07/28 04:47:57;;;;;;;1.20;0.70;;;18.60;29.40;;;;;;5075863;28;20435;-59
2023/07/28 04:50:24;;;;;;;1.40;0.60;;;18.50;43.00;;;;;;5076908;28;20431;-60
2023/07/28 04:52:52;;;;;;;1.20;0.60;;;18.50;57.90;;;;;;5078053;28;20454;-59
2023/07/28 04:55:19;;;;;;;0.90;0.60;;;18.50;81.10;;;;;;5077300;28;20708;-60
2023/07/28 04:57:46;;;;;;;1.10;0.70;;;18.50;77.30;;;;;;5076009;28;20496;-59
2023/07/28 05:00:14;;;;;;;1.10;0.60;;;18.40;91.40;;;;;;5074756;28;20423;-59
2023/07/28 05:02:41;;;;;;;1.08;0.60;;;18.30;89.90;;;;;;5065214;28;20435;-62
2023/07/28 05:05:09;;;;;;;0.90;0.60;;;18.30;99.90;;;;;;5076106;28;20416;-59
2023/07/28 05:07:36;;;;;;;0.90;0.60;;;18.30;99.90;;;;;;5077076;28;20738;-60
2023/07/28 05:10:04;;;;;;;1.50;0.70;;;18.30;99.90;;;;;;5076948;28;20431;-59
2023/07/28 05:12:31;;;;;;;1.00;0.80;;;18.30;99.90;;;;;;5077060;28;20435;-58
2023/07/28 05:14:58;;;;;;;1.15;0.70;;;18.20;99.90;;;;;;5076828;28;20431;-58
2023/07/28 05:17:25;;;;;;;0.90;0.70;;;18.20;99.90;;;;;;5076057;28;20431;-58
2023/07/28 05:19:52;;;;;;;2.00;0.70;;;18.20;99.90;;;;;;5075684;28;20824;-58
2023/07/28 05:22:19;;;;;;;0.98;0.60;;;18.30;99.90;;;;;;5075612;28;20431;-57
2023/07/28 05:24:47;;;;;;;1.20;0.70;;;18.30;99.90;;;;;;5075843;28;20478;-58
2023/07/28 05:27:15;;;;;;;1.00;0.70;;;18.20;99.90;;;;;;5074776;28;20432;-58
2023/07/28 05:29:42;;;;;;;0.90;0.60;;;18.20;99.90;;;;;;5074697;28;20504;-58
2023/07/28 05:32:09;;;;;;;1.10;0.63;;;18.20;99.90;;;;;;5074868;28;20436;-62
2023/07/28 05:34:36;;;;;;;1.10;0.73;;;18.30;99.90;;;;;;5075409;28;20461;-55
2023/07/28 05:37:03;;;;;;;1.00;0.63;;;18.30;99.90;;;;;;5074787;28;20435;-58
2023/07/28 05:39:30;;;;;;;1.30;0.70;;;18.30;99.90;;;;;;5075446;28;20518;-57
2023/07/28 05:41:57;;;;;;;1.58;0.80;;;18.40;99.90;;;;;;5075369;28;20477;-64
2023/07/28 05:44:26;;;;;;;1.20;0.77;;;18.40;99.90;;;;;;5075556;28;20428;-56
2023/07/28 05:46:53;;;;;;;1.10;0.70;;;18.50;99.90;;;;;;5074110;28;20711;-56
2023/07/28 05:49:20;;;;;;;1.00;0.70;;;18.50;99.90;;;;;;5074280;28;20434;-53
2023/07/28 05:51:47;;;;;;;1.05;0.80;;;18.40;99.90;;;;;;5074334;28;20435;-55
2023/07/28 05:54:14;;;;;;;1.00;0.70;;;18.20;99.90;;;;;;5075545;28;20430;-56
2023/07/28 05:56:41;;;;;;;2.60;0.70;;;18.20;99.90;;;;;;5075769;28;20437;-57
2023/07/28 05:59:08;;;;;;;1.30;0.70;;;18.20;99.90;;;;;;5074833;28;20423;-56
2023/07/28 06:01:37;;;;;;;0.90;0.70;;;18.30;99.90;;;;;;5071593;28;20634;-55
2023/07/28 06:04:04;;;;;;;1.00;0.70;;;18.30;99.90;;;;;;5064091;28;20724;-54
2023/07/28 06:06:31;;;;;;;1.10;0.80;;;18.40;99.90;;;;;;5075500;28;20689;-57
2023/07/28 06:08:58;;;;;;;1.90;0.90;;;18.40;99.90;;;;;;5073868;28;20437;-57
2023/07/28 06:11:26;;;;;;;1.10;0.80;;;18.40;99.90;;;;;;5070970;28;20921;-56
2023/07/28 06:13:53;;;;;;;1.15;0.60;;;18.40;99.90;;;;;;5067342;28;20871;-56
2023/07/28 06:16:20;;;;;;;1.17;0.80;;;18.40;99.90;;;;;;5073736;28;20431;-56
2023/07/28 06:18:48;;;;;;;1.08;0.70;;;18.40;99.90;;;;;;5073049;28;20432;-56
2023/07/28 06:21:15;;;;;;;2.47;0.70;;;18.30;99.90;;;;;;5068693;28;20432;-56
2023/07/28 06:23:42;;;;;;;1.23;0.70;;;18.30;99.90;;;;;;5073895;28;20731;-57
2023/07/28 06:26:09;;;;;;;1.85;0.80;;;18.30;99.90;;;;;;5071740;28;20417;-57
2023/07/28 06:28:37;;;;;;;2.00;0.90;;;18.20;99.90;;;;;;5074766;28;20798;-49
2023/07/28 06:31:04;;;;;;;1.70;0.80;;;18.20;99.90;;;;;;5073015;28;20859;-54
2023/07/28 06:33:31;;;;;;;1.35;0.88;;;18.20;99.90;;;;;;5074017;28;20738;-53
2023/07/28 06:35:59;;;;;;;2.08;0.90;;;18.10;99.90;;;;;;5074832;28;20467;-54
2023/07/28 06:38:27;;;;;;;1.23;0.73;;;18.00;99.90;;;;;;5073722;28;20435;-54
2023/07/28 06:40:54;;;;;;;1.60;0.75;;;18.00;99.90;;;;;;5067220;28;20423;-54
2023/07/28 06:43:21;;;;;;;0.90;0.60;;;18.10;99.90;;;;;;5072464;28;20423;-55
2023/07/28 06:45:48;;;;;;;1.10;0.88;;;18.30;99.90;;;;;;5055392;28;20764;-53
2023/07/28 06:48:15;;;;;;;1.45;0.70;;;18.50;99.90;;;;;;5053084;28;20491;-54
2023/07/28 06:50:42;;;;;;;1.30;0.60;;;18.70;99.90;;;;;;5052069;28;20490;-58
2023/07/28 06:53:10;;;;;;;1.20;0.70;;;19.00;99.90;;;;;;5051764;28;20433;-53
2023/07/28 06:55:38;;;;;;;2.00;0.80;;;19.10;99.90;;;;;;5050448;28;20853;-53
2023/07/28 06:58:06;;;;;;;1.13;0.70;;;19.20;99.90;;;;;;5050087;28;20433;-53
2023/07/28 07:00:33;;;;;;;2.05;0.82;;;19.30;99.90;;;;;;5051295;28;20433;-55
2023/07/28 07:03:00;;;;;;;1.00;0.70;;;19.20;99.90;;;;;;5050172;28;20429;-52
2023/07/28 07:05:27;;;;;;;1.50;0.80;;;19.20;99.90;;;;;;5049562;28;20498;-54
2023/07/28 07:07:55;;;;;;;1.40;0.70;;;19.20;99.90;;;;;;5047101;28;21271;-53
2023/07/28 07:10:23;;;;;;;1.30;0.80;;;19.10;99.90;;;;;;5045024;28;20803;-51
2023/07/28 07:12:50;;;;;;;1.40;0.80;;;19.20;99.90;;;;;;5045754;28;20441;-55
2023/07/28 07:15:17;;;;;;;1.52;0.70;;;19.20;99.90;;;;;;5052175;28;20448;-55
2023/07/28 07:17:44;;;;;;;1.95;0.70;;;19.30;99.90;;;;;;5052386;28;20765;-55
2023/07/28 07:20:12;;;;;;;1.80;0.87;;;19.40;99.90;;;;;;5044037;28;20482;-55
2023/07/28 07:22:39;;;;;;;1.73;0.90;;;19.30;99.90;;;;;;5052803;28;20418;-52
2023/07/28 07:25:07;;;;;;;2.30;0.70;;;19.40;99.90;;;;;;5052870;28;20491;-56
2023/07/28 07:27:35;;;;;;;0.90;0.70;;;19.60;99.90;;;;;;5052448;28;20491;-56
2023/07/28 07:30:04;;;;;;;1.80;0.80;;;19.90;99.90;;;;;;5053354;28;20429;-56
2023/07/28 07:32:33;;;;;;;1.50;0.70;;;20.00;99.90;;;;;;5052808;28;20553;-55
2023/07/28 07:35:00;;;;;;;1.00;0.80;;;20.20;99.90;;;;;;5053503;28;20425;-53
2023/07/28 07:37:27;;;;;;;1.17;0.70;;;20.30;99.90;;;;;;5052655;28;20437;-55
2023/07/28 07:39:54;;;;;;;2.75;0.80;;;20.20;99.90;;;;;;5054170;28;20520;-56
2023/07/28 07:42:21;;;;;;;1.30;0.80;;;20.20;99.90;;;;;;5053538;28;20456;-53
2023/07/28 07:44:50;;;;;;;0.95;0.70;;;20.40;99.90;;;;;;5059551;28;20435;-57
2023/07/28 07:47:17;;;;;;;1.30;0.80;;;20.50;99.90;;;;;;5072308;28;20869;-56
2023/07/28 07:49:44;;;;;;;1.40;0.70;;;20.40;99.90;;;;;;5072040;28;20423;-59
2023/07/28 07:52:11;;;;;;;1.02;0.80;;;20.40;99.90;;;;;;5070529;28;20435;-54
2023/07/28 07:54:38;;;;;;;0.90;0.60;;;20.20;99.90;;;;;;5073186;28;20431;-56
2023/07/28 07:57:06;;;;;;;1.70;0.70;;;20.10;99.90;;;;;;5057499;28;20494;-54
2023/07/28 07:59:33;;;;;;;1.88;0.70;;;20.10;99.90;;;;;;5050157;28;20519;-54
2023/07/28 08:02:02;;;;;;;1.55;0.80;;;20.20;99.90;;;;;;5050867;28;20425;-56
2023/07/28 08:04:31;;;;;;;1.35;0.80;;;20.40;99.90;;;;;;5051099;28;20421;-56
2023/07/28 08:06:58;;;;;;;1.05;0.70;;;20.50;99.90;;;;;;5051067;28;20841;-56
2023/07/28 08:09:25;;;;;;;1.15;0.70;;;20.60;99.90;;;;;;5049812;28;20428;-58
2023/07/28 08:11:52;;;;;;;1.42;0.70;;;20.80;99.90;;;;;;5051557;28;20436;-56
2023/07/28 08:14:19;;;;;;;0.90;0.60;;;21.00;99.90;;;;;;5051328;28;20442;-56
2023/07/28 08:16:47;;;;;;;1.10;0.70;;;20.90;99.90;;;;;;5052769;28;20416;-56
2023/07/28 08:19:15;;;;;;;2.10;0.60;;;20.70;99.90;;;;;;5052724;28;20784;-54
2023/07/28 08:21:42;;;;;;;1.10;0.70;;;20.60;99.90;;;;;;5051731;28;20935;-57
2023/07/28 08:24:11;;;;;;;1.00;0.70;;;20.60;99.90;;;;;;5053101;28;20425;-58
2023/07/28 08:26:38;;;;;;;0.95;0.60;;;20.70;99.90;;;;;;5051905;28;20734;-56
2023/07/28 08:29:05;;;;;;;3.00;0.75;;;20.80;99.90;;;;;;5052062;28;20540;-56
2023/07/28 08:31:32;;;;;;;1.13;0.70;;;20.80;99.90;;;;;;5050897;28;20425;-57
2023/07/28 08:33:59;;;;;;;1.08;0.75;;;20.90;99.90;;;;;;5052464;28;20861;-57
2023/07/28 08:36:28;;;;;;;1.35;0.80;;;21.00;99.90;;;;;;5052504;28;20429;-58
2023/07/28 08:38:55;;;;;;;1.05;0.70;;;21.00;99.90;;;;;;5050594;28;20494;-55
2023/07/28 08:41:22;;;;;;;1.08;0.75;;;20.90;99.90;;;;;;5073704;28;20414;-56
2023/07/28 08:43:50;;;;;;;1.83;0.90;;;21.00;99.90;;;;;;5090913;28;20421;-57
2023/07/28 08:46:18;;;;;;;1.85;0.85;;;21.20;99.90;;;;;;5077148;28;20435;-57
2023/07/28 08:48:45;;;;;;;1.27;0.80;;;21.10;99.90;;;;;;5079247;28;20425;-55
2023/07/28 08:51:13;;;;;;;1.02;0.80;;;21.10;99.90;;;;;;5077643;28;20438;-57
2023/07/28 08:53:41;;;;;;;1.27;0.90;;;21.20;99.90;;;;;;5063025;28;20637;-57
2023/07/28 08:56:09;;;;;;;1.10;0.70;;;21.40;99.90;;;;;;5056594;28;20426;-56
2023/07/28 08:58:37;;;;;;;1.70;0.70;;;21.60;99.90;;;;;;5068490;28;20484;-56
2023/07/28 09:01:04;;;;;;;1.00;0.60;;;21.90;99.90;;;;;;5071996;28;20489;-55
2023/07/28 09:03:33;;;;;;;1.48;0.80;;;22.10;99.90;;;;;;5070636;28;20431;-57
2023/07/28 09:06:01;;;;;;;1.45;0.60;;;22.10;99.90;;;;;;5071002;28;20456;-57
2023/07/28 09:08:31;;;;;;;1.40;0.70;;;21.90;99.90;;;;;;5073641;28;20522;-57
2023/07/28 09:11:04;;;;;;;1.67;0.80;;;21.80;99.90;;;;;;5058717;28;20461;-57
2023/07/28 09:13:37;;;;;;;1.08;0.70;;;21.80;99.90;;;;;;5066336;28;20434;-57
2023/07/28 09:16:05;;;;;;;1.00;0.70;;;21.70;99.90;;;;;;5066168;28;20765;-57
2023/07/28 09:18:32;;;;;;;1.20;0.73;;;21.70;99.90;;;;;;5075284;28;20452;-56
2023/07/28 09:20:59;;;;;;;1.10;0.70;;;21.80;99.90;;;;;;5075128;28;20920;-57
2023/07/28 09:23:29;;;;;;;0.80;0.60;;;21.80;99.90;;;;;;5074071;28;20435;-58
2023/07/28 09:26:02;;;;;;;1.00;0.70;;;21.80;99.90;;;;;;5076622;28;20529;-58
2023/07/28 09:28:38;;;;;;;1.00;0.70;;;21.80;99.90;;;;;;5084710;28;20427;-58
2023/07/28 09:31:06;;;;;;;1.00;0.70;;;21.70;99.90;;;;;;5071878;28;20478;-57
2023/07/28 09:33:35;;;;;;;1.50;0.60;;;21.80;99.90;;;;;;5078679;28;20440;-57
2023/07/28 09:36:10;;;;;;;1.10;0.60;;;22.10;99.90;;;;;;5094414;28;20490;-58
2023/07/28 09:38:40;;;;;;;1.08;0.65;;;22.50;99.90;;;;;;5095034;28;20490;-56
2023/07/28 09:41:11;;;;;;;1.80;0.90;;;22.70;99.90;;;;;;5093493;28;20417;-56
2023/07/28 09:43:38;;;;;;;1.00;0.70;;;22.80;99.90;;;;;;5082789;28;21147;-56
2023/07/28 09:46:08;;;;;;;0.90;0.63;;;22.60;99.90;;;;;;5077539;28;20425;-55
2023/07/28 09:48:37;;;;;;;1.30;0.70;;;22.60;99.90;;;;;;5092897;28;20432;-55
2023/07/28 09:51:09;;;;;;;1.17;0.80;;;22.70;99.90;;;;;;5085503;28;20476;-54
2023/07/28 09:53:42;;;;;;;3.05;0.90;;;22.60;99.90;;;;;;5073760;28;20435;-55
2023/07/28 09:56:13;;;;;;;1.77;1.00;;;22.50;99.90;;;;;;5074004;28;20434;-53
2023/07/28 09:58:45;;;;;;;1.40;0.82;;;22.30;99.90;;;;;;5074498;28;20457;-54
2023/07/28 10:01:13;;;;;;;2.30;0.90;;;22.10;99.90;;;;;;5072142;28;20476;-53
2023/07/28 10:03:40;;;;;;;2.80;0.90;;;22.10;99.90;;;;;;5074540;28;20424;-54
2023/07/28 10:06:08;;;;;;;2.50;0.98;;;22.00;99.90;;;;;;5073676;28;20427;-54
2023/07/28 10:08:35;;;;;;;1.20;0.73;;;21.80;99.90;;;;;;5075399;28;20430;-52
2023/07/28 10:11:04;;;;;;;2.10;0.70;;;21.90;99.90;;;;;;5073636;28;20867;-54
2023/07/28 10:13:41;;;;;;;1.20;0.70;;;22.00;99.90;;;;;;5083892;28;20735;-53
2023/07/28 10:16:09;;;;;;;2.28;0.70;;;22.20;99.90;;;;;;5094255;28;20433;-54
2023/07/28 10:18:36;;;;;;;1.25;0.70;;;22.30;99.90;;;;;;5074376;28;20432;-55
2023/07/28 10:21:06;;;;;;;1.48;0.80;;;22.40;99.90;;;;;;5065259;28;20441;-54
2023/07/28 10:23:35;;;;;;;1.30;0.80;;;22.20;99.90;;;;;;5076976;28;20834;-53
2023/07/28 10:26:05;;;;;;;2.30;0.80;;;22.20;99.90;;;;;;5084908;28;20444;-55
2023/07/28 10:28:38;;;;;;;1.23;0.70;;;22.10;99.90;;;;;;5094300;28;20432;-54
2023/07/28 10:31:06;;;;;;;1.58;0.70;;;22.00;99.90;;;;;;5094947;28;20564;-53
2023/07/28 10:33:35;;;;;;;1.17;0.70;;;22.00;99.90;;;;;;5081679;28;20439;-54
2023/07/28 10:36:13;;;;;;;1.00;0.70;;;22.10;99.90;;;;;;5074732;28;20442;-55
2023/07/28 10:38:40;;;;;;;1.00;0.70;;;22.10;99.90;;;;;;5073553;28;20518;-56
2023/07/28 10:41:09;;;;;;;1.10;0.75;;;22.20;99.90;;;;;;5073310;28;20974;-52
2023/07/28 10:43:39;;;;;;;1.60;0.70;;;22.20;99.90;;;;;;5082195;28;20750;-54
2023/07/28 10:46:07;;;;;;;1.80;0.70;;;22.20;99.90;;;;;;5063937;28;20437;-51
2023/07/28 10:48:36;;;;;;;1.80;0.70;;;22.30;99.90;;;;;;5070776;28;20427;-56
2023/07/28 10:51:04;;;;;;;1.10;0.60;;;22.50;99.90;;;;;;5088295;28;20481;-55
2023/07/28 10:53:33;;;;;;;2.60;0.90;;;22.60;1.00;;;;;;5078435;28;20436;-54
2023/07/28 10:56:00;;;;;;;1.20;0.50;;;22.70;1.00;;;;;;5085508;28;20517;-55
2023/07/28 10:58:27;;;;;;;1.60;0.50;;;22.90;99.90;;;;;;5069524;28;20523;-53
2023/07/28 11:00:56;;;;;;;1.10;0.50;;;23.10;99.90;;;;;;5072001;28;20434;-55
2023/07/28 11:03:24;;;;;;;0.70;0.40;;;23.40;99.90;;;;;;5067896;28;20693;-54
2023/07/28 11:05:51;;;;;;;0.60;0.40;;;23.50;99.90;;;;;;5070575;28;20432;-51
2023/07/28 11:08:19;;;;;;;0.50;0.30;;;23.80;99.90;;;;;;5072650;28;20423;-56
2023/07/28 11:10:46;;;;;;;0.50;0.30;;;24.10;99.90;;;;;;5064938;28;20541;-56
2023/07/28 11:13:14;;;;;;;0.63;0.30;;;24.50;99.90;;;;;;5070756;28;20431;-54
2023/07/28 11:15:41;;;;;;;0.50;0.30;;;24.80;99.90;;;;;;5059656;28;20432;-56
2023/07/28 11:18:11;;;;;;;0.70;0.30;;;24.90;99.90;;;;;;5061865;28;20441;-54
2023/07/28 11:20:38;;;;;;;0.43;0.30;;;25.20;99.90;;;;;;5057816;28;20733;-55
2023/07/28 11:23:06;;;;;;;0.60;0.30;;;25.30;99.90;;;;;;5052524;28;20479;-56
2023/07/28 11:25:35;;;;;;;0.70;0.43;;;25.20;99.90;;;;;;5052302;28;20414;-57
2023/07/28 11:28:05;;;;;;;0.60;0.30;;;25.20;99.90;;;;;;5051852;28;20812;-55
2023/07/28 11:30:33;;;;;;;0.70;0.40;;;25.40;99.90;;;;;;5063716;28;20423;-54
2023/07/28 11:33:00;;;;;;;0.60;0.30;;;25.40;99.90;;;;;;5080564;28;20444;-55
2023/07/28 11:35:29;;;;;;;0.60;0.30;;;24.90;99.90;;;;;;5074932;28;20531;-56
2023/07/28 11:37:57;;;;;;;0.60;0.30;;;24.80;99.90;;;;;;5084576;28;20418;-57
2023/07/28 11:40:25;;;;;;;0.90;0.30;;;24.80;99.90;;;;;;5072906;28;20427;-56
2023/07/28 11:42:55;;;;;;;0.60;0.30;;;24.80;99.90;;;;;;5073133;28;20530;-55
2023/07/28 11:45:23;;;;;;;0.50;0.30;;;24.80;99.90;;;;;;5072792;28;20435;-56
2023/07/28 11:47:57;;;;;;;0.60;0.30;;;24.80;99.90;;;;;;5072458;28;20434;-56
2023/07/28 11:50:25;;;;;;;0.70;0.30;;;24.60;99.90;;;;;;5070793;28;20427;-57
2023/07/28 11:52:54;;;;;;;1.10;0.40;;;24.60;99.90;;;;;;5069605;28;20508;-57
2023/07/28 11:55:22;;;;;;;0.80;0.30;;;24.70;99.90;;;;;;5070090;28;20522;-54
2023/07/28 11:57:50;;;;;;;0.63;0.30;;;24.70;99.90;;;;;;5070575;28;20533;-55
2023/07/28 12:00:17;;;;;;;0.60;0.30;;;24.80;99.90;;;;;;5071804;28;20431;-56
2023/07/28 12:02:45;;;;;;;0.50;0.40;;;24.50;99.90;;;;;;5079283;28;20424;-58
2023/07/28 12:05:16;;;;;;;1.00;0.60;;;24.20;99.90;;;;;;5080833;28;20454;-56
2023/07/28 12:07:48;;;;;;;1.20;0.50;;;24.00;1.00;;;;;;5052808;28;20734;-55
2023/07/28 12:10:17;;;;;;;0.70;0.50;;;23.60;99.90;;;;;;5063073;28;20534;-54
2023/07/28 12:12:48;;;;;;;0.90;0.50;;;23.40;99.90;;;;;;5073060;28;20423;-54
2023/07/28 12:15:23;;;;;;;1.17;0.70;;;23.40;1.00;;;;;;5070760;28;20512;-56
2023/07/28 12:18:13;;;;;;;0.95;0.50;;;23.50;99.90;;;;;;5071494;28;20473;-58
2023/07/28 12:20:46;;;;;;;0.70;0.50;;;23.40;99.90;;;;;;5070132;28;20813;-58
2023/07/28 12:23:14;;;;;;;0.80;0.40;;;23.30;99.90;;;;;;5068966;28;20744;-57
2023/07/28 12:25:43;;;;;;;0.73;0.40;;;23.40;1.00;;;;;;5070142;28;20420;-57
2023/07/28 12:28:10;;;;;;;0.82;0.40;;;23.30;1.00;;;;;;5070612;28;20435;-56
2023/07/28 12:30:38;;;;;;;0.90;0.40;;;23.20;1.00;;;;;;5071055;28;20556;-57
2023/07/28 12:33:06;;;;;;;0.70;0.40;;;23.30;1.00;;;;;;5070775;28;20432;-57
2023/07/28 12:35:34;;;;;;;0.90;0.50;;;23.20;1.00;;;;;;5068687;28;20431;-58
2023/07/28 12:38:04;;;;;;;0.90;0.60;;;23.00;1.00;;;;;;5074746;28;20424;-57
2023/07/28 12:40:31;;;;;;;0.90;0.50;;;22.80;1.00;;;;;;5076538;28;20477;-59
2023/07/28 12:43:01;;;;;;;0.73;0.50;;;22.80;1.00;;;;;;5055815;28;20558;-59
2023/07/28 12:45:29;;;;;;;0.70;0.50;;;22.90;1.00;;;;;;5055075;28;20421;-58
2023/07/28 12:47:56;;;;;;;1.20;0.40;;;23.20;1.00;;;;;;5066982;28;20437;-60
2023/07/28 12:50:24;;;;;;;0.60;0.40;;;23.50;99.90;;;;;;5081877;28;20779;-58
2023/07/28 12:52:52;;;;;;;3.60;0.40;;;23.60;99.90;;;;;;5084545;28;20778;-60